createdAt,value
2019-03-10T00:03:19.687Z,1.02
2019-03-10T00:08:25.822Z,3.80
2019-03-10T00:13:32.064Z,2.12
2019-03-10T00:18:37.511Z,2.08
2019-03-10T00:23:43.010Z,1.20
2019-03-10T00:28:48.599Z,1.37
2019-03-10T00:33:54.645Z,2.15
2019-03-10T00:39:29.781Z,1.60
2019-03-10T00:45:21.013Z,1.72
2019-03-10T00:51:22.819Z,1.22
2019-03-10T00:56:28.960Z,1.92
2019-03-10T01:01:34.910Z,1.50
2019-03-10T01:06:41.228Z,1.42
2019-03-10T01:11:47.115Z,1.20
2019-03-10T01:16:53.118Z,1.02
2019-03-10T01:21:59.471Z,1.12
2019-03-10T01:27:05.182Z,1.20
2019-03-10T01:32:35.921Z,1.15
2019-03-10T01:37:41.513Z,0.98
2019-03-10T01:42:47.289Z,1.22
2019-03-10T01:47:53.073Z,1.57
2019-03-10T01:52:59.365Z,1.40
2019-03-10T01:58:04.940Z,1.98
2019-03-10T02:03:11.061Z,1.10
2019-03-10T02:08:16.881Z,1.00
2019-03-10T02:13:22.799Z,1.50
2019-03-10T02:18:28.633Z,1.02
2019-03-10T02:23:34.375Z,1.47
2019-03-10T02:28:40.180Z,0.90
2019-03-10T02:33:46.032Z,1.02
2019-03-10T02:38:52.320Z,1.12
2019-03-10T02:43:58.146Z,1.30
2019-03-10T02:49:04.063Z,1.30
2019-03-10T02:54:09.905Z,1.00
2019-03-10T02:59:15.632Z,1.10
2019-03-10T03:04:22.351Z,1.00
2019-03-10T03:09:28.105Z,1.20
2019-03-10T03:14:34.817Z,0.78
2019-03-10T03:19:41.011Z,0.80
2019-03-10T03:24:46.960Z,0.78
2019-03-10T03:29:52.659Z,0.75
2019-03-10T03:34:58.391Z,1.92
2019-03-10T03:40:04.120Z,1.02
2019-03-10T03:45:10.181Z,0.82
2019-03-10T03:50:16.061Z,0.78
2019-03-10T03:55:21.909Z,1.10
2019-03-10T04:00:27.571Z,0.90
2019-03-10T04:05:33.690Z,1.07
2019-03-10T04:10:39.654Z,0.70
2019-03-10T04:15:45.679Z,0.82
2019-03-10T04:20:51.538Z,0.68
2019-03-10T04:25:57.721Z,0.80
2019-03-10T04:31:03.481Z,0.68
2019-03-10T04:36:09.392Z,1.82
2019-03-10T04:41:15.131Z,0.57
2019-03-10T04:46:20.939Z,0.70
2019-03-10T04:51:26.930Z,0.80
2019-03-10T04:56:43.031Z,0.98
2019-03-10T05:01:48.710Z,0.68
2019-03-10T05:06:54.749Z,0.88
2019-03-10T05:12:00.501Z,0.72
2019-03-10T05:17:06.399Z,0.90
2019-03-10T05:22:12.474Z,1.10
2019-03-10T05:27:18.280Z,1.02
2019-03-10T05:32:24.000Z,0.60
2019-03-10T05:37:29.759Z,1.27
2019-03-10T05:42:35.460Z,0.78
2019-03-10T05:47:41.250Z,0.70
2019-03-10T05:52:47.030Z,0.90
2019-03-10T05:57:52.699Z,0.88
2019-03-10T06:02:58.400Z,1.00
2019-03-10T06:08:04.040Z,0.98
2019-03-10T06:13:09.980Z,0.62
2019-03-10T06:18:15.680Z,0.90
2019-03-10T06:23:21.522Z,0.85
2019-03-10T06:28:27.361Z,0.70
2019-03-10T06:33:33.148Z,0.70
2019-03-10T06:38:39.069Z,0.90
2019-03-10T06:43:45.080Z,0.62
2019-03-10T06:48:50.781Z,0.70
2019-03-10T06:53:56.403Z,0.72
2019-03-10T06:59:02.141Z,0.80
2019-03-10T07:04:07.761Z,0.62
2019-03-10T07:09:13.310Z,2.50
2019-03-10T07:14:19.107Z,1.17
2019-03-10T07:19:24.771Z,0.88
2019-03-10T07:24:30.350Z,2.35
2019-03-10T07:29:41.141Z,0.90
2019-03-10T07:35:08.801Z,4.28
2019-03-10T07:40:51.180Z,5.72
2019-03-10T07:46:15.581Z,6.95
2019-03-10T07:51:38.380Z,6.15
2019-03-10T07:57:05.780Z,2.70
2019-03-10T08:02:26.470Z,3.08
2019-03-10T08:07:53.620Z,3.55
2019-03-10T08:13:14.279Z,2.80
2019-03-10T08:18:51.059Z,6.75
2019-03-10T08:24:15.260Z,1.20
2019-03-10T08:29:40.149Z,3.22
2019-03-10T08:35:07.350Z,11.85
2019-03-10T08:40:47.171Z,6.80
2019-03-10T08:46:01.823Z,3.70
2019-03-10T08:51:30.000Z,4.47
2019-03-10T08:56:45.439Z,8.40
2019-03-10T09:02:08.569Z,4.00
2019-03-10T09:07:33.501Z,9.65
2019-03-10T09:13:03.860Z,5.67
2019-03-10T09:18:31.939Z,5.97
2019-03-10T09:23:48.839Z,16.52
2019-03-10T09:29:13.293Z,5.42
2019-03-10T09:34:36.310Z,9.95
2019-03-10T09:39:47.993Z,9.55
2019-03-10T09:45:15.161Z,2.80
2019-03-10T09:50:42.719Z,5.53
2019-03-10T09:56:07.091Z,1.92
2019-03-10T10:01:40.340Z,6.03
2019-03-10T10:06:52.273Z,3.80
2019-03-10T10:12:13.709Z,5.62
2019-03-10T10:17:26.051Z,3.05
2019-03-10T10:22:48.159Z,4.45
2019-03-10T10:28:11.939Z,4.87
2019-03-10T10:33:31.001Z,4.05
2019-03-10T10:38:53.822Z,3.90
2019-03-10T10:44:24.140Z,5.72
2019-03-10T10:49:57.470Z,4.92
2019-03-10T10:55:30.314Z,4.28
2019-03-10T11:01:10.042Z,2.02
2019-03-10T11:06:21.131Z,1.57
2019-03-10T11:11:46.850Z,6.78
2019-03-10T11:17:08.010Z,2.12
2019-03-10T11:22:24.815Z,1.37
2019-03-10T11:27:39.534Z,4.25
2019-03-10T11:33:06.935Z,1.40
2019-03-10T11:38:22.691Z,4.00
2019-03-10T11:44:02.702Z,1.60
2019-03-10T11:49:27.081Z,6.83
2019-03-10T11:54:49.806Z,7.95
2019-03-10T12:00:09.541Z,10.53
2019-03-10T12:05:38.073Z,25.20
2019-03-10T12:10:43.890Z,45.73
2019-03-10T12:15:49.930Z,13.55
2019-03-10T12:20:55.790Z,16.48
2019-03-10T12:26:01.501Z,22.42
2019-03-10T12:31:07.610Z,10.43
2019-03-10T12:36:13.569Z,11.03
2019-03-10T12:41:20.092Z,8.65
2019-03-10T12:46:26.280Z,7.10
2019-03-10T12:51:32.202Z,9.85
2019-03-10T12:56:37.802Z,12.60
2019-03-10T13:01:44.359Z,5.83
2019-03-10T13:06:50.090Z,14.63
2019-03-10T13:11:55.720Z,1.12
2019-03-10T13:17:01.981Z,1.55
2019-03-10T13:22:08.350Z,4.20
2019-03-10T13:27:14.560Z,6.90
2019-03-10T13:32:20.723Z,4.87
2019-03-10T13:37:27.198Z,10.25
2019-03-10T13:42:33.391Z,4.05
2019-03-10T13:47:39.311Z,3.27
2019-03-10T13:53:16.277Z,5.00
2019-03-10T13:58:24.743Z,6.60
2019-03-10T14:03:32.816Z,5.00
2019-03-10T14:09:07.378Z,5.75
2019-03-10T14:14:15.316Z,2.87
2019-03-10T14:19:22.896Z,4.45
2019-03-10T14:25:06.155Z,3.75
2019-03-10T14:30:13.998Z,5.33
2019-03-10T14:35:21.977Z,3.00
2019-03-10T14:40:31.717Z,8.18
2019-03-10T14:45:41.496Z,12.05
2019-03-10T14:50:51.298Z,10.20
2019-03-10T14:56:00.737Z,7.83
2019-03-10T15:01:09.918Z,12.95
2019-03-10T15:06:20.796Z,8.95
2019-03-10T15:11:29.376Z,11.60
2019-03-10T15:30:53.999Z,14.85
2019-03-10T15:55:34.475Z,7.20
2019-03-10T16:00:42.109Z,8.70
2019-03-10T16:07:25.646Z,10.75
2019-03-10T16:12:23.159Z,9.33
2019-03-10T16:17:31.798Z,11.30
2019-03-10T16:22:40.635Z,7.67
2019-03-10T16:27:51.635Z,14.30
2019-03-10T16:32:59.758Z,14.75
2019-03-10T16:38:09.901Z,14.23
2019-03-10T16:43:18.498Z,13.18
2019-03-10T16:48:26.898Z,17.73
2019-03-10T16:53:36.976Z,13.20
2019-03-10T16:58:45.119Z,23.40
2019-03-10T17:03:52.898Z,11.78
2019-03-10T17:09:01.804Z,16.00
2019-03-10T17:14:09.719Z,16.25
2019-03-10T17:19:17.315Z,20.65
2019-03-10T17:24:25.635Z,13.55
2019-03-10T17:29:33.617Z,14.55
2019-03-10T17:34:42.755Z,13.95
2019-03-10T17:39:50.998Z,11.08
2019-03-10T17:44:58.997Z,13.48
2019-03-10T17:50:08.256Z,17.30
2019-03-10T17:55:16.516Z,11.73
